Weather History for KEIK - December, 2013

Change the Weather History Date:

Thursday, December 19, 2013

  Actual Average (KBJC) Record (KBJC)
Temperature  
Mean Temperature 34 °F -  
Max Temperature 50 °F 41 °F 60 °F (2004)
Min Temperature 17 °F 21 °F -7 °F (1989)
Degree Days  
Heating Degree Days 32    
Moisture  
Dew Point 21 °F    
Average Humidity 66    
Maximum Humidity 96    
Minimum Humidity 22    
Precipitation  
Precipitation 0.00 in - - ()
Sea Level Pressure  
Sea Level Pressure 29.70 in    
Wind  
Wind Speed 4 mph (NNE)    
Max Wind Speed 17 mph    
Max Gust Speed 23 mph    
Visibility 9 miles    
Events      
Averages and records for this station are not official NWS values.
T = Trace of Precipitation, MM = Missing Value Source: NWS Daily Summary

Daily Weather History Graph

Daily Weather History Graph

Search for Another Location

Airport or City:

Trip Planner

Search our weather history database for the weather conditions in past years. The results will help you decide how hot, cold, wet, or windy it might be!

Date:

Astronomy

Dec. 19, 2013 Rise Set
Actual Time 7:17 AM MST 4:37 PM MST
Civil Twilight 6:47 AM MST 5:07 PM MST
Nautical Twilight 6:12 AM MST 5:42 PM MST
Astronomical Twilight 5:39 AM MST 6:15 PM MST
Moon 7:05 PM MST (12/19) 8:38 AM MST (12/19)
Length of Visible Light 10h 20m
Length of Day
9h 19m
Waning Gibbous, 95% of the Moon is Illuminated
Dec 19
Waning Gibbous
Dec 25
Last Quarter
Jan 1
New
Jan 7
First Quarter
Jan 15
Full

Hourly Weather History & Observations

Time (MST) Temp. Windchill Dew Point Humidity Pressure Visibility Wind Dir Wind Speed Gust Speed Precip Events Conditions
12:14 AM 48.6 °F - 14.4 °F 25% 29.70 in 10.0 mi NNW 3.5 mph - N/A   Scattered Clouds
12:34 AM 50.7 °F - 12.7 °F 22% 29.69 in 10.0 mi Calm Calm - N/A   Clear
12:54 AM 46.6 °F - 14.0 °F 27% 29.69 in 10.0 mi Calm Calm - N/A   Clear
1:14 AM 48.0 °F - 14.5 °F 26% 29.68 in 10.0 mi SSW 3.5 mph - N/A   Scattered Clouds
1:34 AM 44.4 °F - 15.6 °F 31% 29.67 in 10.0 mi Calm Calm - N/A   Mostly Cloudy
1:54 AM 41.7 °F 38.8 °F 17.1 °F 37% 29.68 in 10.0 mi NE 4.6 mph - N/A   Overcast
2:14 AM 40.5 °F - 18.0 °F 40% 29.67 in 10.0 mi Calm Calm - N/A   Scattered Clouds
2:34 AM 38.3 °F 33.9 °F 17.8 °F 44% 29.67 in 10.0 mi SSW 5.8 mph - N/A   Scattered Clouds
2:54 AM 33.6 °F 29.4 °F 18.1 °F 53% 29.68 in 10.0 mi NW 4.6 mph - N/A   Clear
3:14 AM 31.8 °F 28.5 °F 19.4 °F 60% 29.67 in 10.0 mi NNW 3.5 mph - N/A   Clear
3:34 AM 30.7 °F - 20.3 °F 65% 29.68 in 10.0 mi Calm Calm - N/A   Clear
3:54 AM 30.4 °F 26.9 °F 20.7 °F 67% 29.68 in 10.0 mi WSW 3.5 mph - N/A   Scattered Clouds
4:14 AM 30.9 °F - 21.2 °F 67% 29.68 in 10.0 mi Calm Calm - N/A   Scattered Clouds
4:34 AM 30.2 °F 22.6 °F 21.0 °F 69% 29.68 in 10.0 mi SW 8.1 mph - N/A   Scattered Clouds
4:54 AM 29.8 °F 26.3 °F 21.4 °F 71% 29.68 in 10.0 mi WNW 3.5 mph - N/A   Mostly Cloudy
5:14 AM 30.0 °F - 21.6 °F 71% 29.68 in 10.0 mi Calm Calm - N/A   Mostly Cloudy
5:34 AM 30.2 °F 26.7 °F 22.3 °F 72% 29.65 in 10.0 mi NNE 3.5 mph - N/A   Scattered Clouds
5:54 AM 32.7 °F - 21.4 °F 63% 29.64 in 10.0 mi Calm Calm - N/A   Clear
6:14 AM 31.3 °F 25.6 °F 21.6 °F 67% 29.63 in 10.0 mi West 5.8 mph - N/A   Clear
6:34 AM 30.6 °F - 21.6 °F 69% 29.62 in 10.0 mi Calm Calm - N/A   Clear
6:54 AM 28.9 °F - 21.4 °F 73% 29.62 in 10.0 mi Calm Calm - N/A   Clear
7:14 AM 28.4 °F - 20.8 °F 73% 29.63 in 10.0 mi Calm Calm - N/A   Clear
7:34 AM 28.2 °F 24.4 °F 21.2 °F 75% 29.64 in 10.0 mi NNE 3.5 mph - N/A   Clear
7:54 AM 28.2 °F - 21.7 °F 77% 29.64 in 10.0 mi Calm Calm - N/A   Clear
8:14 AM 27.5 °F - 22.1 °F 80% 29.63 in 10.0 mi Calm Calm - N/A   Clear
8:34 AM 29.3 °F 24.3 °F 23.2 °F 78% 29.63 in 10.0 mi North 4.6 mph - N/A   Clear
8:54 AM 32.2 °F - 22.6 °F 68% 29.63 in 10.0 mi Calm Calm - N/A   Clear
9:14 AM 32.4 °F 26.9 °F 22.1 °F 66% 29.64 in 10.0 mi WNW 5.8 mph - N/A   Clear
9:34 AM 32.5 °F - 22.5 °F 66% 29.63 in 10.0 mi Calm Calm - N/A   Clear
9:54 AM 34.2 °F 30.0 °F 21.9 °F 61% 29.63 in 10.0 mi North 4.6 mph - N/A   Clear
10:14 AM 35.6 °F 32.8 °F 22.1 °F 58% 29.63 in 10.0 mi North 3.5 mph - N/A   Clear
10:34 AM 36.9 °F 32.2 °F 21.7 °F 54% 29.62 in 10.0 mi North 5.8 mph - N/A   Clear
10:54 AM 37.4 °F 33.8 °F 22.3 °F 54% 29.61 in 10.0 mi North 4.6 mph - N/A   Clear
11:14 AM 38.8 °F 33.2 °F 22.8 °F 53% 29.60 in 10.0 mi North 8.1 mph - N/A   Clear
11:34 AM 39.7 °F 34.3 °F 23.4 °F 52% 29.59 in 10.0 mi North 8.1 mph - N/A   Clear
11:54 AM 40.3 °F 36.3 °F 23.9 °F 52% 29.58 in 10.0 mi North 5.8 mph - N/A   Clear
12:14 PM 40.3 °F 35.5 °F 24.1 °F 52% 29.58 in 10.0 mi North 6.9 mph - N/A   Clear
12:34 PM 41.0 °F 35.8 °F 24.3 °F 51% 29.57 in 10.0 mi NE 8.1 mph - N/A   Clear
12:54 PM 41.0 °F 36.4 °F 23.9 °F 51% 29.57 in 10.0 mi North 6.9 mph - N/A   Clear
1:14 PM 40.6 °F 36.0 °F 24.1 °F 52% 29.56 in 10.0 mi North 6.9 mph - N/A   Clear
1:34 PM 41.2 °F 36.6 °F 24.4 °F 51% 29.56 in 10.0 mi NNE 6.9 mph - N/A   Clear
1:54 PM 42.3 °F 36.8 °F 24.3 °F 49% 29.55 in 10.0 mi NNE 9.2 mph - N/A   Clear
2:14 PM 43.0 °F 38.8 °F 24.3 °F 48% 29.55 in 10.0 mi North 6.9 mph - N/A   Clear
2:34 PM 42.3 °F 38.6 °F 24.3 °F 49% 29.56 in 10.0 mi NNE 5.8 mph - N/A   Clear
2:54 PM 42.1 °F 37.7 °F 23.9 °F 49% 29.57 in 10.0 mi North 6.9 mph - N/A   Clear
3:14 PM 41.0 °F 34.3 °F 24.8 °F 53% 29.60 in 10.0 mi North 11.5 mph - N/A   Clear
3:34 PM 40.1 °F 33.6 °F 25.0 °F 55% 29.62 in 10.0 mi NNE 10.4 mph - N/A   Clear
3:54 PM 39.7 °F 34.3 °F 25.5 °F 57% 29.65 in 10.0 mi NNE 8.1 mph - N/A   Clear
4:14 PM 39.2 °F 34.2 °F 25.3 °F 58% 29.67 in 10.0 mi North 6.9 mph - N/A   Clear
4:34 PM 37.8 °F 30.7 °F 24.3 °F 58% 29.70 in 10.0 mi North 10.4 mph - N/A   Clear
4:54 PM 36.3 °F 30.1 °F 24.4 °F 62% 29.72 in 10.0 mi North 8.1 mph - N/A   Clear
5:14 PM 33.3 °F 22.5 °F 25.5 °F 73% 29.75 in 10.0 mi North 17.3 mph 23.0 mph N/A   Clear
5:34 PM 31.8 °F 22.3 °F 25.2 °F 76% 29.78 in 10.0 mi NNE 12.7 mph 19.6 mph N/A   Scattered Clouds
5:54 PM 31.8 °F 23.9 °F 25.3 °F 77% 29.80 in 10.0 mi NNE 9.2 mph 17.3 mph N/A   Overcast
6:14 PM 31.6 °F 20.4 °F 25.3 °F 78% 29.81 in 10.0 mi NNE 17.3 mph 21.9 mph N/A   Overcast
6:34 PM 28.4 °F 17.0 °F 23.0 °F 80% 29.83 in 10.0 mi NNE 15.0 mph 18.4 mph N/A   Overcast
6:54 PM 27.0 °F 17.3 °F 22.3 °F 83% 29.84 in 10.0 mi NNE 10.4 mph 18.4 mph N/A   Overcast
7:14 PM 24.8 °F 12.9 °F 21.7 °F 88% 29.85 in 10.0 mi NNE 13.8 mph - N/A   Overcast
7:34 PM 23.0 °F 11.7 °F 20.7 °F 91% 29.86 in 7.0 mi NNE 11.5 mph - N/A   Overcast
7:54 PM 21.6 °F 10.6 °F 20.3 °F 95% 29.87 in 5.0 mi NE 10.4 mph 17.3 mph N/A   Overcast
8:14 PM 20.1 °F 9.5 °F 18.7 °F 94% 29.87 in 7.0 mi NNE 9.2 mph - N/A   Overcast
8:34 PM 19.2 °F 8.4 °F 17.2 °F 92% 29.88 in 10.0 mi NE 9.2 mph - N/A   Overcast
8:54 PM 18.5 °F 8.4 °F 16.2 °F 91% 29.87 in 10.0 mi NE 8.1 mph - N/A   Overcast
9:14 PM 18.1 °F 8.9 °F 15.8 °F 91% 29.88 in 7.0 mi NE 6.9 mph - N/A   Overcast
9:34 PM 18.0 °F 9.8 °F 15.8 °F 91% 29.88 in 7.0 mi East 5.8 mph - N/A   Overcast
9:54 PM 17.6 °F 10.7 °F 16.3 °F 95% 29.87 in 3.0 mi East 4.6 mph - N/A   Overcast
10:14 PM 17.6 °F 9.3 °F 16.3 °F 95% 29.87 in 3.0 mi East 5.8 mph - N/A   Overcast
10:34 PM 17.6 °F 10.7 °F 16.3 °F 95% 29.87 in 4.0 mi East 4.6 mph - N/A   Overcast
10:54 PM 17.4 °F 10.4 °F 16.3 °F 96% 29.87 in 4.0 mi ENE 4.6 mph - N/A   Overcast
11:14 PM 17.6 °F 12.3 °F 16.7 °F 96% 29.87 in 3.0 mi ESE 3.5 mph - N/A   Overcast
11:34 PM 17.6 °F 12.3 °F 16.5 °F 96% 29.87 in 3.0 mi East 3.5 mph - N/A   Overcast
11:54 PM 17.4 °F 12.1 °F 16.2 °F 95% 29.87 in 3.0 mi East 3.5 mph - N/A   Overcast